createdAt,value
2022-10-18T00:00:50.357Z,10.52
2022-10-18T00:03:53.022Z,11.10
2022-10-18T00:06:55.726Z,10.43
2022-10-18T00:09:58.477Z,11.00
2022-10-18T00:13:00.960Z,10.03
2022-10-18T00:16:06.353Z,10.50
2022-10-18T00:19:08.896Z,10.50
2022-10-18T00:22:11.862Z,11.80
2022-10-18T00:25:14.498Z,10.15
2022-10-18T00:28:17.003Z,11.17
2022-10-18T00:31:26.582Z,10.32
2022-10-18T00:34:29.346Z,10.43
2022-10-18T00:37:32.902Z,10.60
2022-10-18T00:40:35.934Z,11.10
2022-10-18T00:43:59.282Z,10.20
2022-10-18T00:47:07.456Z,10.45
2022-10-18T00:50:10.746Z,10.90
2022-10-18T00:53:17.977Z,9.75
2022-10-18T00:56:20.872Z,10.75
2022-10-18T00:59:26.574Z,10.07
2022-10-18T01:02:29.658Z,10.50
2022-10-18T01:05:33.201Z,10.55
2022-10-18T01:08:57.412Z,10.48
2022-10-18T01:12:36.481Z,10.43
2022-10-18T01:15:52.052Z,9.50
2022-10-18T01:19:07.090Z,9.77
2022-10-18T01:22:29.280Z,10.10
2022-10-18T01:25:41.006Z,10.10
2022-10-18T01:29:32.936Z,10.65
2022-10-18T01:32:40.923Z,9.70
2022-10-18T01:35:53.175Z,10.60
2022-10-18T01:38:58.997Z,10.13
2022-10-18T01:42:05.415Z,9.48
2022-10-18T01:45:11.274Z,9.60
2022-10-18T01:48:14.804Z,9.80
2022-10-18T01:51:24.662Z,9.73
2022-10-18T01:54:34.545Z,9.93
2022-10-18T01:57:47.117Z,9.45
2022-10-18T02:00:59.552Z,9.65
2022-10-18T02:04:19.446Z,10.17
2022-10-18T02:07:39.138Z,9.80
2022-10-18T02:11:04.457Z,9.55
2022-10-18T02:14:12.946Z,9.20
2022-10-18T02:17:16.968Z,9.73
2022-10-18T02:20:22.330Z,9.77
2022-10-18T02:23:26.667Z,9.35
2022-10-18T02:26:29.958Z,9.60
2022-10-18T02:29:35.655Z,8.85
2022-10-18T02:33:05.481Z,9.15
2022-10-18T02:36:14.694Z,10.10
2022-10-18T02:39:21.783Z,9.38
2022-10-18T02:42:24.362Z,9.40
2022-10-18T02:45:27.441Z,9.55
2022-10-18T02:48:30.300Z,9.85
2022-10-18T02:51:32.931Z,9.17
2022-10-18T02:54:35.451Z,9.27
2022-10-18T02:57:38.224Z,9.15
2022-10-18T03:00:40.719Z,9.15
2022-10-18T03:03:43.307Z,9.13
2022-10-18T03:06:45.772Z,10.23
2022-10-18T03:09:48.851Z,9.45
2022-10-18T03:12:51.457Z,9.13
2022-10-18T03:15:54.255Z,9.57
2022-10-18T03:18:57.231Z,9.35
2022-10-18T03:22:00.150Z,9.40
2022-10-18T03:25:02.651Z,9.55
2022-10-18T03:28:05.564Z,9.68
2022-10-18T03:31:08.170Z,9.40
2022-10-18T03:34:10.912Z,9.63
2022-10-18T03:37:13.416Z,9.40
2022-10-18T03:40:16.265Z,9.55
2022-10-18T03:43:19.715Z,9.50
2022-10-18T03:46:23.180Z,9.45
2022-10-18T03:49:26.099Z,8.68
2022-10-18T03:52:28.731Z,9.47
2022-10-18T03:55:31.285Z,8.85
2022-10-18T04:01:41.240Z,9.25
2022-10-18T04:04:43.753Z,9.02
2022-10-18T04:07:46.463Z,8.73
2022-10-18T04:10:52.670Z,8.98
2022-10-18T04:13:55.220Z,8.88
2022-10-18T04:16:57.671Z,8.60
2022-10-18T04:20:00.604Z,8.57
2022-10-18T04:23:03.071Z,8.90
2022-10-18T04:26:06.249Z,9.05
2022-10-18T04:29:08.695Z,8.70
2022-10-18T04:32:11.317Z,8.50
2022-10-18T04:35:13.870Z,8.88
2022-10-18T04:38:16.541Z,8.97
2022-10-18T04:41:19.423Z,8.35
2022-10-18T04:44:21.948Z,8.57
2022-10-18T04:47:24.612Z,8.63
2022-10-18T04:50:27.857Z,8.80
2022-10-18T04:53:32.817Z,8.23
2022-10-18T04:56:35.332Z,8.63
2022-10-18T04:59:37.912Z,8.88
2022-10-18T05:02:40.382Z,8.90
2022-10-18T05:06:03.223Z,8.52
2022-10-18T05:09:06.285Z,8.87
2022-10-18T05:12:09.830Z,9.02
2022-10-18T05:15:13.988Z,8.45
2022-10-18T05:18:19.322Z,9.02
2022-10-18T05:21:22.695Z,8.82
2022-10-18T05:24:27.639Z,9.20
2022-10-18T05:27:30.414Z,8.90
2022-10-18T05:30:33.084Z,9.80
2022-10-18T05:33:35.729Z,12.10
2022-10-18T05:36:38.857Z,11.20
2022-10-18T05:39:41.686Z,10.93
2022-10-18T05:42:44.118Z,10.82
2022-10-18T05:45:54.338Z,11.13
2022-10-18T05:48:56.913Z,10.15
2022-10-18T05:51:59.392Z,10.05
2022-10-18T05:55:01.896Z,9.40
2022-10-18T05:58:04.538Z,9.75
2022-10-18T06:01:07.812Z,9.85
2022-10-18T06:04:10.845Z,10.00
2022-10-18T06:07:13.751Z,10.88
2022-10-18T06:10:20.856Z,10.27
2022-10-18T06:13:25.539Z,10.45
2022-10-18T06:16:32.175Z,10.88
2022-10-18T06:19:35.466Z,10.18
2022-10-18T06:22:38.299Z,10.60
2022-10-18T06:25:44.406Z,9.60
2022-10-18T06:28:48.055Z,10.48
2022-10-18T06:31:50.768Z,9.50
2022-10-18T06:34:53.327Z,9.27
2022-10-18T06:37:57.822Z,9.70
2022-10-18T06:41:05.851Z,9.40
2022-10-18T06:44:14.391Z,9.57
2022-10-18T06:47:17.246Z,9.88
2022-10-18T06:50:21.438Z,9.15
2022-10-18T06:53:29.228Z,9.30
2022-10-18T06:56:32.638Z,9.20
2022-10-18T06:59:35.983Z,9.27
2022-10-18T07:02:41.361Z,9.18
2022-10-18T07:05:44.347Z,8.75
2022-10-18T07:08:48.584Z,9.63
2022-10-18T07:11:52.978Z,8.70
2022-10-18T07:14:56.951Z,8.48
2022-10-18T07:18:00.805Z,8.65
2022-10-18T07:21:05.553Z,8.70
2022-10-18T07:24:10.093Z,8.90
2022-10-18T07:27:13.029Z,8.43
2022-10-18T07:30:15.626Z,7.88
2022-10-18T07:33:19.934Z,9.02
2022-10-18T07:36:22.515Z,8.65
2022-10-18T07:39:25.298Z,8.23
2022-10-18T07:42:32.174Z,8.50
2022-10-18T07:48:45.726Z,8.95
2022-10-18T07:51:52.534Z,8.63
2022-10-18T07:54:57.864Z,8.88
2022-10-18T07:58:01.480Z,8.60
2022-10-18T08:01:05.529Z,8.77
2022-10-18T08:04:13.969Z,8.90
2022-10-18T08:07:19.750Z,8.02
2022-10-18T08:10:24.429Z,7.88
2022-10-18T08:13:26.974Z,7.90
2022-10-18T08:19:35.821Z,8.73
2022-10-18T08:22:40.829Z,8.32
2022-10-18T08:25:44.458Z,8.30
2022-10-18T08:28:54.291Z,7.90
2022-10-18T08:32:09.610Z,8.13
2022-10-18T08:35:21.871Z,7.95
2022-10-18T08:38:24.909Z,8.32
2022-10-18T08:41:37.620Z,8.02
2022-10-18T08:44:51.733Z,8.67
2022-10-18T08:47:57.859Z,8.07
2022-10-18T08:51:03.521Z,8.20
2022-10-18T08:54:49.557Z,7.85
2022-10-18T08:57:53.567Z,8.45
2022-10-18T09:01:08.732Z,8.10
2022-10-18T09:04:30.047Z,8.27
2022-10-18T09:07:45.468Z,8.43
2022-10-18T09:10:59.472Z,8.60
2022-10-18T09:14:02.724Z,8.20
2022-10-18T09:17:05.228Z,8.20
2022-10-18T09:20:19.505Z,8.30
2022-10-18T09:23:46.331Z,8.38
2022-10-18T09:26:56.166Z,7.78
2022-10-18T09:30:09.716Z,8.18
2022-10-18T09:33:35.339Z,7.17
2022-10-18T09:36:39.267Z,7.05
2022-10-18T09:39:42.656Z,8.13
2022-10-18T09:43:03.327Z,7.75
2022-10-18T09:46:07.881Z,7.93
2022-10-18T09:49:29.549Z,7.60
2022-10-18T09:58:40.303Z,7.45
2022-10-18T10:01:45.942Z,7.93
2022-10-18T10:04:50.938Z,8.00
2022-10-18T10:08:04.419Z,7.80
2022-10-18T10:11:33.434Z,7.20
2022-10-18T10:14:45.413Z,7.75
2022-10-18T10:18:01.708Z,7.68
2022-10-18T10:21:07.153Z,7.80
2022-10-18T10:24:28.862Z,7.43
2022-10-18T10:27:45.064Z,7.82
2022-10-18T10:30:49.301Z,7.53
2022-10-18T10:34:15.281Z,7.63
2022-10-18T10:37:36.802Z,7.57
2022-10-18T10:40:51.754Z,6.77
2022-10-18T10:43:56.195Z,7.10
2022-10-18T10:47:00.519Z,7.38
2022-10-18T10:50:13.202Z,7.68
2022-10-18T10:53:36.094Z,7.35
2022-10-18T10:57:03.360Z,7.27
2022-10-18T11:00:06.705Z,7.18
2022-10-18T11:03:28.958Z,7.20
2022-10-18T11:06:47.955Z,7.30
2022-10-18T11:09:54.378Z,7.32
2022-10-18T11:13:20.003Z,7.07
2022-10-18T11:16:51.537Z,7.10
2022-10-18T11:20:10.938Z,6.80
2022-10-18T11:23:18.632Z,7.65
2022-10-18T11:26:39.387Z,6.88
2022-10-18T11:30:04.070Z,6.60
2022-10-18T11:34:08.161Z,6.68
2022-10-18T11:37:43.433Z,7.00
2022-10-18T11:41:12.402Z,7.70
2022-10-18T11:44:14.957Z,7.00
2022-10-18T11:47:46.362Z,7.50
2022-10-18T11:50:57.944Z,6.57
2022-10-18T11:54:18.820Z,6.57
2022-10-18T11:57:51.030Z,7.15
2022-10-18T12:01:03.351Z,7.05
2022-10-18T12:04:19.177Z,6.90
2022-10-18T12:07:27.805Z,7.05
2022-10-18T12:10:46.123Z,6.65
2022-10-18T12:14:07.484Z,6.60
2022-10-18T12:17:46.350Z,6.97
2022-10-18T12:20:56.268Z,6.47
2022-10-18T12:24:03.080Z,6.60
2022-10-18T12:27:06.889Z,6.38
2022-10-18T12:30:20.783Z,6.75
2022-10-18T12:33:28.984Z,7.05
2022-10-18T12:36:48.485Z,6.97
2022-10-18T12:40:33.602Z,6.90
2022-10-18T12:43:37.109Z,6.97
2022-10-18T12:46:45.679Z,6.70
2022-10-18T12:50:00.805Z,6.65
2022-10-18T12:53:06.736Z,7.13
2022-10-18T12:56:27.811Z,6.85
2022-10-18T12:59:30.246Z,6.75
2022-10-18T13:02:34.297Z,6.50
2022-10-18T13:05:55.204Z,6.50
2022-10-18T13:09:20.381Z,6.57
2022-10-18T13:12:23.650Z,6.22
2022-10-18T13:15:44.470Z,6.60
2022-10-18T13:18:55.694Z,6.45
2022-10-18T13:22:19.458Z,6.32
2022-10-18T13:25:33.782Z,6.33
2022-10-18T13:29:08.031Z,6.82
2022-10-18T13:32:36.454Z,6.35
2022-10-18T13:35:56.288Z,6.53
2022-10-18T13:39:02.660Z,6.72
2022-10-18T13:42:14.172Z,6.23
2022-10-18T13:45:32.078Z,6.90
2022-10-18T13:48:37.354Z,6.97
2022-10-18T13:52:17.355Z,6.25
2022-10-18T13:55:41.555Z,6.57
2022-10-18T13:59:15.914Z,6.57
2022-10-18T14:02:52.002Z,6.45
2022-10-18T14:06:22.706Z,6.43
2022-10-18T14:09:45.287Z,6.28
2022-10-18T14:12:54.794Z,6.15
2022-10-18T14:16:05.590Z,6.60
2022-10-18T14:19:18.244Z,6.00
2022-10-18T14:22:38.603Z,6.57
2022-10-18T14:25:41.594Z,7.93
2022-10-18T14:28:59.528Z,7.88
2022-10-18T14:32:02.686Z,7.03
2022-10-18T14:35:33.964Z,7.22
2022-10-18T14:38:39.168Z,7.55
2022-10-18T14:41:54.293Z,7.00
2022-10-18T14:44:56.858Z,7.35
2022-10-18T14:48:17.539Z,8.83
2022-10-18T14:51:21.352Z,6.75
2022-10-18T14:54:31.652Z,6.90
2022-10-18T14:57:37.457Z,7.05
2022-10-18T15:00:41.882Z,7.45
2022-10-18T15:03:47.523Z,6.50
2022-10-18T15:06:50.301Z,6.97
2022-10-18T15:09:53.805Z,7.10
2022-10-18T15:13:09.689Z,6.82
2022-10-18T15:16:19.740Z,7.25
2022-10-18T15:19:22.225Z,6.93
2022-10-18T15:22:32.129Z,7.05
2022-10-18T15:25:36.026Z,7.38
2022-10-18T15:28:49.431Z,6.75
2022-10-18T15:31:52.665Z,6.82
2022-10-18T15:35:05.884Z,6.63
2022-10-18T15:38:16.338Z,6.75
2022-10-18T15:41:44.234Z,6.93
2022-10-18T15:44:49.323Z,6.80
2022-10-18T15:47:57.900Z,7.10
2022-10-18T15:51:10.927Z,6.70
2022-10-18T15:54:29.370Z,6.57
2022-10-18T15:57:32.322Z,7.00
2022-10-18T16:00:46.794Z,6.32
2022-10-18T16:04:18.856Z,6.57
2022-10-18T16:07:22.360Z,6.80
2022-10-18T16:10:26.348Z,6.50
2022-10-18T16:13:30.291Z,6.82
2022-10-18T16:16:33.686Z,6.45
2022-10-18T16:19:36.245Z,6.85
2022-10-18T16:22:39.567Z,6.60
2022-10-18T16:25:42.309Z,6.90
2022-10-18T16:28:48.670Z,6.82
2022-10-18T16:32:06.478Z,7.15
2022-10-18T16:35:55.293Z,7.32
2022-10-18T16:39:05.697Z,6.70
2022-10-18T16:42:16.276Z,6.72
2022-10-18T16:45:19.397Z,7.45
2022-10-18T16:48:24.787Z,6.97
2022-10-18T16:51:27.785Z,7.35
2022-10-18T16:54:30.330Z,7.10
2022-10-18T16:57:32.791Z,7.18
2022-10-18T17:00:35.523Z,7.50
2022-10-18T17:03:38.042Z,7.28
2022-10-18T17:06:40.633Z,7.53
2022-10-18T17:09:43.641Z,8.20
2022-10-18T17:12:46.465Z,7.82
2022-10-18T17:15:50.373Z,7.88
2022-10-18T17:18:52.956Z,7.95
2022-10-18T17:22:02.410Z,7.88
2022-10-18T17:25:06.451Z,7.37
2022-10-18T17:28:12.986Z,8.15
2022-10-18T17:31:16.832Z,8.23
2022-10-18T17:34:21.338Z,8.18
2022-10-18T17:37:24.618Z,9.05
2022-10-18T17:40:27.873Z,8.43
2022-10-18T17:43:32.731Z,7.97
2022-10-18T17:46:38.879Z,8.45
2022-10-18T17:49:44.782Z,8.30
2022-10-18T17:52:48.767Z,8.38
2022-10-18T17:56:02.608Z,8.57
2022-10-18T17:59:06.445Z,8.60
2022-10-18T18:02:11.113Z,8.43
2022-10-18T18:05:14.339Z,8.63
2022-10-18T18:08:17.484Z,8.88
2022-10-18T18:11:22.655Z,9.20
2022-10-18T18:14:26.227Z,8.80
2022-10-18T18:17:34.558Z,9.13
2022-10-18T18:20:54.983Z,9.45
2022-10-18T18:23:58.873Z,9.88
2022-10-18T18:27:02.217Z,9.20
2022-10-18T18:30:07.183Z,9.23
2022-10-18T18:33:13.029Z,10.02
2022-10-18T18:36:16.309Z,9.93
2022-10-18T18:39:25.830Z,10.23
2022-10-18T18:42:30.772Z,10.07
2022-10-18T18:45:34.202Z,10.43
2022-10-18T18:48:37.691Z,10.40
2022-10-18T18:51:42.736Z,9.50
2022-10-18T18:54:46.026Z,9.90
2022-10-18T18:57:49.689Z,11.00
2022-10-18T19:00:54.630Z,10.77
2022-10-18T19:03:59.505Z,10.68
2022-10-18T19:07:03.169Z,10.73
2022-10-18T19:10:07.147Z,10.95
2022-10-18T19:13:11.685Z,11.03
2022-10-18T19:16:32.265Z,11.90
2022-10-18T19:19:35.718Z,12.13
2022-10-18T19:22:39.958Z,12.20
2022-10-18T19:25:44.335Z,13.10
2022-10-18T19:28:49.686Z,12.80
2022-10-18T19:31:58.765Z,12.38
2022-10-18T19:35:02.033Z,12.70
2022-10-18T19:38:05.627Z,12.15
2022-10-18T19:41:08.777Z,12.65
2022-10-18T19:44:12.829Z,13.00
2022-10-18T19:47:15.938Z,12.27
2022-10-18T19:50:21.166Z,12.65
2022-10-18T19:53:24.507Z,13.35
2022-10-18T19:56:30.212Z,13.10
2022-10-18T19:59:34.528Z,13.30
2022-10-18T20:02:37.700Z,12.80
2022-10-18T20:05:40.975Z,12.98
2022-10-18T20:08:44.320Z,13.48
2022-10-18T20:11:47.110Z,14.20
2022-10-18T20:14:51.000Z,13.10
2022-10-18T20:17:53.504Z,14.35
2022-10-18T20:20:56.647Z,14.45
2022-10-18T20:23:59.162Z,13.07
2022-10-18T20:27:01.883Z,14.25
2022-10-18T20:30:08.930Z,13.43
2022-10-18T20:33:18.381Z,14.30
2022-10-18T20:36:21.209Z,14.85
2022-10-18T20:39:23.828Z,15.20
2022-10-18T20:42:26.373Z,14.88
2022-10-18T20:45:28.919Z,13.97
2022-10-18T20:48:33.055Z,14.30
2022-10-18T20:51:36.015Z,15.18
2022-10-18T20:54:38.551Z,15.05
2022-10-18T20:57:41.443Z,15.13
2022-10-18T21:00:47.824Z,14.93
2022-10-18T21:03:52.678Z,14.63
2022-10-18T21:06:55.303Z,15.55
2022-10-18T21:09:57.788Z,14.07
2022-10-18T21:13:01.360Z,15.20
2022-10-18T21:16:05.628Z,15.30
2022-10-18T21:19:14.306Z,15.40
2022-10-18T21:22:17.939Z,15.10
2022-10-18T21:25:20.410Z,15.57
2022-10-18T21:28:23.998Z,16.40
2022-10-18T21:31:29.301Z,14.50
2022-10-18T21:34:32.208Z,15.05
2022-10-18T21:37:34.779Z,15.07
2022-10-18T21:40:44.490Z,15.65
2022-10-18T21:43:50.796Z,15.15
2022-10-18T21:46:55.078Z,15.83
2022-10-18T21:49:58.431Z,15.52
2022-10-18T21:53:00.939Z,15.10
2022-10-18T21:56:06.360Z,14.73
2022-10-18T21:59:12.643Z,15.32
2022-10-18T22:02:15.360Z,14.83
2022-10-18T22:05:18.346Z,15.93
2022-10-18T22:08:21.151Z,15.20
2022-10-18T22:11:33.052Z,15.00
2022-10-18T22:14:36.016Z,15.73
2022-10-18T22:17:38.786Z,15.53
2022-10-18T22:20:41.977Z,15.43
2022-10-18T22:23:47.407Z,15.98
2022-10-18T22:26:51.664Z,15.38
2022-10-18T22:29:54.191Z,15.52
2022-10-18T22:32:57.844Z,15.17
2022-10-18T22:36:00.389Z,15.75
2022-10-18T22:39:05.551Z,15.23
2022-10-18T22:42:08.062Z,15.55
2022-10-18T22:45:10.868Z,15.70
2022-10-18T22:48:13.474Z,15.00
2022-10-18T22:51:16.095Z,15.65
2022-10-18T22:54:18.944Z,15.73
2022-10-18T22:57:21.425Z,15.25
2022-10-18T23:00:26.667Z,15.10
2022-10-18T23:03:29.746Z,15.37
2022-10-18T23:06:34.979Z,14.70
2022-10-18T23:09:37.579Z,14.85
2022-10-18T23:12:40.505Z,15.68
2022-10-18T23:15:43.009Z,15.45
2022-10-18T23:18:53.371Z,15.33
2022-10-18T23:21:56.167Z,15.55
2022-10-18T23:24:59.041Z,15.13
2022-10-18T23:28:01.565Z,14.85
2022-10-18T23:31:12.378Z,14.82
2022-10-18T23:34:15.327Z,15.23
2022-10-18T23:37:17.998Z,15.07
2022-10-18T23:40:24.199Z,15.25
2022-10-18T23:43:31.388Z,14.98
2022-10-18T23:46:33.932Z,15.52
2022-10-18T23:49:36.745Z,15.03
2022-10-18T23:52:39.252Z,15.23
2022-10-18T23:55:56.103Z,14.93
2022-10-18T23:58:58.739Z,14.63
